No se requiere un especial cuidado respecto a la situación meteorológica.   -   No hay avisos

Informes METAR

 

LEZL - Sevilla, Spain
Distancia de la estación: ENE 8km
Actualización: 22/01/2019 13:00
Poco nuboso
Poco nuboso
 Viento de ONO
Viento: ONO 13 km/h
Temperatura: 13°C
Rocío: 6°C
Humedad: 63%
Barómetro: 1022 hPa
Nubes: Poco nuboso
Visibilidad: 10 km
Detalles de las nubes: Poco nuboso 914 m
2019/01/22 12:00 LEZL 221200Z 29007KT 260V330 9999 FEW030 13/06 Q1022 NOSIG
LEMO - Morón, Spain
Distancia de la estación: SE 43km
Actualización: 22/01/2019 13:00
Despejado
Despejado
 Viento de OSO
Viento: OSO 20 km/h
Temperatura: 10°C
Sensación térmica: 7°C
Rocío: 6°C
Humedad: 76%
Barómetro: 1022 hPa
Resumen: Despejado
Visibilidad: mayor de 10 km
2019/01/22 12:00 LEMO 221200Z 25011KT 220V280 CAVOK 10/06 Q1022 NOSIG
LEJR - Jeréz, Spain
Distancia de la estación: S 71km
Actualización: 22/01/2019 13:30
Poco nuboso
Poco nuboso
 Viento de ONO
Viento: ONO 31 km/h
Temperatura: 13°C
Rocío: 7°C
Humedad: 67%
Barómetro: 1022 hPa
Nubes: Poco nuboso
Visibilidad: 10 km
Detalles de las nubes: Poco nuboso 1067 m
2019/01/22 12:30 LEJR 221230Z 30017KT 260V330 9999 FEW035 13/07 Q1022
 
LERT - Rota, Spain
Distancia de la estación: SSO 89km
Actualización: 22/01/2019 13:00
Poco nuboso
Poco nuboso
 Viento de NO
Viento: NO 28 km/h
Temperatura: 13°C
Rocío: 8°C
Humedad: 72%
Barómetro: 1023 hPa
Nubes: Poco nuboso
Visibilidad: 10 km
Detalles de las nubes: Poco nuboso 914 m
2019/01/22 12:00 LERT 221200Z 31015KT 280V340 9999 FEW030 13/08 Q1023 NOSIG
LEMG - Málaga, Spain
Distancia de la estación: ESE 157km
Actualización: 22/01/2019 13:00
Poco nuboso
Poco nuboso
 Viento de ONO
Viento: ONO 20 km/h
Temperatura: 15°C
Rocío: 3°C
Humedad: 45%
Barómetro: 1020 hPa
Nubes: Poco nuboso
Visibilidad: 10 km
Detalles de las nubes: Poco nuboso 1524 m
2019/01/22 12:00 LEMG 221200Z 30011KT 9999 FEW050 15/03 Q1020 NOSIG
LEBA - Córdoba, Spain
Distancia de la estación: ENE 115km
Actualización: 22/01/2019 13:00
Despejado
Despejado
 Viento de O
Viento: O 11 km/h
Temperatura: 8°C
Sensación térmica: 6°C
Rocío: 3°C
Humedad: 71%
Barómetro: 1021 hPa
Resumen: Despejado
Visibilidad: mayor de 10 km
2019/01/22 12:00 LEBA 221200Z 26006KT 230V290 CAVOK 08/03 Q1021
 
LEGR - Granada, Spain
Distancia de la estación: E 198km
Actualización: 22/01/2019 13:00
Parcialmente nuboso
Parcialmente nuboso
 Viento de variable
Viento: variable 2 km/h
Temperatura: 6°C
Rocío: 1°C
Humedad: 71%
Barómetro: 1020 hPa
Nubes: Parcialmente nuboso
Visibilidad: 10 km
Detalles de las nubes: Poco nuboso 1219 m
Parcialmente nuboso 1524 m
2019/01/22 12:00 LEGR 221200Z VRB01KT 9999 FEW040 SCT050 06/01 Q1020
LEAM - Almería, Spain
Distancia de la estación: E 326km
Actualización: 22/01/2019 13:00
Despejado
Despejado
 Viento de S
Viento: S 7 km/h
Temperatura: 14°C
Rocío: 0°C
Humedad: 39%
Barómetro: 1016 hPa
Resumen: Despejado
Visibilidad: mayor de 10 km
2019/01/22 12:00 LEAM 221200Z 18004KT 140V220 CAVOK 14/00 Q1016
LEMD - Madrid/Barajas, Spain
Distancia de la estación: NNE 402km
Actualización: 22/01/2019 13:00
Despejado
Despejado
 Viento de variable
Viento: variable 4 km/h
Temperatura: 6°C
Rocío: 1°C
Humedad: 71%
Barómetro: 1016 hPa
Resumen: Despejado
Visibilidad: mayor de 10 km
2019/01/22 12:00 LEMD 221200Z VRB02KT CAVOK 06/01 Q1016 NOSIG
 
LEVD - Valladolid, Spain
Distancia de la estación: N 492km
Actualización: 22/01/2019 13:00
Cubierto
Cubierto
 Viento de OSO
Viento: OSO 28 km/h
Temperatura: 3°C
Sensación térmica: -3°C
Rocío: 2°C
Humedad: 93%
Barómetro: 1016 hPa
Nubes: Cubierto
Visibilidad: 10 km
Detalles de las nubes: Muy nuboso 853 m
Cubierto 1189 m
2019/01/22 12:00 LEVD 221200Z 25015KT 9999 BKN028 OVC039 03/02 Q1016
LEBL - Barcelona, Spain
Distancia de la estación: NE 816km
Actualización: 22/01/2019 13:00
Despejado
Despejado
 Viento de NO
Viento: NO 19 km/h
Temperatura: 8°C
Sensación térmica: 4°C
Rocío: 0°C
Humedad: 57%
Barómetro: 1012 hPa
Resumen: Despejado
Visibilidad: mayor de 10 km
2019/01/22 12:00 LEBL 221200Z 32010KT 300V360 CAVOK 08/M00 Q1012 NOSIG
LEVC - Valencia, Spain
Distancia de la estación: ENE 535km
Actualización: 22/01/2019 13:00
Poco nuboso
Poco nuboso
 Viento de O
Viento: O 19 km/h
Temperatura: 13°C
Rocío: -4°C
Humedad: 31%
Barómetro: 1014 hPa
Nubes: Poco nuboso
Visibilidad: 10 km
Detalles de las nubes: Poco nuboso 914 m
2019/01/22 12:00 LEVC 221200Z 28010KT 240V300 9999 FEW030 13/M04 Q1014 NOSIG